sensor_id;sensor_type;location;lat;lon;timestamp;P1;durP1;ratioP1;P2;durP2;ratioP2
9898;SDS011;4988;49.238;6.698;2023-07-20T00:01:19;5.47;;;3.07;;
9898;SDS011;4988;49.238;6.698;2023-07-20T00:03:45;7.27;;;3.03;;
9898;SDS011;4988;49.238;6.698;2023-07-20T00:06:19;4.77;;;2.80;;
9898;SDS011;4988;49.238;6.698;2023-07-20T00:08:45;7.17;;;2.90;;
9898;SDS011;4988;49.238;6.698;2023-07-20T00:11:10;7.13;;;2.80;;
9898;SDS011;4988;49.238;6.698;2023-07-20T00:13:38;6.57;;;3.10;;
9898;SDS011;4988;49.238;6.698;2023-07-20T00:16:03;6.20;;;2.80;;
9898;SDS011;4988;49.238;6.698;2023-07-20T00:18:29;7.03;;;3.00;;
9898;SDS011;4988;49.238;6.698;2023-07-20T00:20:54;5.90;;;3.23;;
9898;SDS011;4988;49.238;6.698;2023-07-20T00:23:20;9.20;;;3.33;;
9898;SDS011;4988;49.238;6.698;2023-07-20T00:25:47;7.37;;;3.43;;
9898;SDS011;4988;49.238;6.698;2023-07-20T00:28:13;6.13;;;3.07;;
9898;SDS011;4988;49.238;6.698;2023-07-20T00:30:38;6.97;;;2.53;;
9898;SDS011;4988;49.238;6.698;2023-07-20T00:33:04;6.43;;;3.00;;
9898;SDS011;4988;49.238;6.698;2023-07-20T00:35:29;10.37;;;3.10;;
9898;SDS011;4988;49.238;6.698;2023-07-20T00:37:55;4.90;;;2.77;;
9898;SDS011;4988;49.238;6.698;2023-07-20T00:40:20;4.93;;;3.00;;
9898;SDS011;4988;49.238;6.698;2023-07-20T00:42:45;7.93;;;3.00;;
9898;SDS011;4988;49.238;6.698;2023-07-20T00:45:10;8.13;;;2.93;;
9898;SDS011;4988;49.238;6.698;2023-07-20T00:47:36;6.93;;;3.10;;
9898;SDS011;4988;49.238;6.698;2023-07-20T00:50:02;5.33;;;2.70;;
9898;SDS011;4988;49.238;6.698;2023-07-20T00:52:27;6.17;;;3.00;;
9898;SDS011;4988;49.238;6.698;2023-07-20T00:54:53;6.73;;;3.33;;
9898;SDS011;4988;49.238;6.698;2023-07-20T00:57:21;7.70;;;3.00;;
9898;SDS011;4988;49.238;6.698;2023-07-20T00:59:48;5.13;;;2.87;;
9898;SDS011;4988;49.238;6.698;2023-07-20T01:02:14;8.07;;;3.20;;
9898;SDS011;4988;49.238;6.698;2023-07-20T01:04:39;4.90;;;2.90;;
9898;SDS011;4988;49.238;6.698;2023-07-20T01:10:05;5.30;;;3.23;;
9898;SDS011;4988;49.238;6.698;2023-07-20T01:12:46;8.03;;;2.93;;
9898;SDS011;4988;49.238;6.698;2023-07-20T01:15:16;7.63;;;2.90;;
9898;SDS011;4988;49.238;6.698;2023-07-20T01:17:41;7.43;;;3.20;;
9898;SDS011;4988;49.238;6.698;2023-07-20T01:20:08;6.53;;;2.80;;
9898;SDS011;4988;49.238;6.698;2023-07-20T01:25:32;5.83;;;3.03;;
9898;SDS011;4988;49.238;6.698;2023-07-20T01:28:16;5.80;;;3.10;;
9898;SDS011;4988;49.238;6.698;2023-07-20T01:33:31;5.63;;;3.00;;
9898;SDS011;4988;49.238;6.698;2023-07-20T01:35:58;6.93;;;3.20;;
9898;SDS011;4988;49.238;6.698;2023-07-20T01:38:25;7.27;;;3.40;;
9898;SDS011;4988;49.238;6.698;2023-07-20T01:40:51;5.63;;;3.27;;
9898;SDS011;4988;49.238;6.698;2023-07-20T01:43:17;6.50;;;3.73;;
9898;SDS011;4988;49.238;6.698;2023-07-20T01:45:42;6.93;;;3.10;;
9898;SDS011;4988;49.238;6.698;2023-07-20T01:48:08;8.17;;;3.47;;
9898;SDS011;4988;49.238;6.698;2023-07-20T01:50:33;8.03;;;3.27;;
9898;SDS011;4988;49.238;6.698;2023-07-20T01:52:59;6.67;;;3.20;;
9898;SDS011;4988;49.238;6.698;2023-07-20T01:55:25;10.00;;;3.33;;
9898;SDS011;4988;49.238;6.698;2023-07-20T01:57:50;9.60;;;3.70;;
9898;SDS011;4988;49.238;6.698;2023-07-20T02:00:16;9.73;;;3.53;;
9898;SDS011;4988;49.238;6.698;2023-07-20T02:02:43;9.73;;;3.97;;
9898;SDS011;4988;49.238;6.698;2023-07-20T02:05:09;7.83;;;3.33;;
9898;SDS011;4988;49.238;6.698;2023-07-20T02:07:34;5.57;;;3.50;;
9898;SDS011;4988;49.238;6.698;2023-07-20T02:09:59;9.00;;;3.63;;
9898;SDS011;4988;49.238;6.698;2023-07-20T02:12:25;6.53;;;3.73;;
9898;SDS011;4988;49.238;6.698;2023-07-20T02:14:50;6.17;;;3.60;;
9898;SDS011;4988;49.238;6.698;2023-07-20T02:17:16;6.70;;;3.37;;
9898;SDS011;4988;49.238;6.698;2023-07-20T02:19:41;7.10;;;3.70;;
9898;SDS011;4988;49.238;6.698;2023-07-20T02:22:07;11.83;;;3.57;;
9898;SDS011;4988;49.238;6.698;2023-07-20T02:24:33;6.97;;;3.77;;
9898;SDS011;4988;49.238;6.698;2023-07-20T02:26:59;7.37;;;3.40;;
9898;SDS011;4988;49.238;6.698;2023-07-20T02:29:24;10.37;;;3.80;;
9898;SDS011;4988;49.238;6.698;2023-07-20T02:31:49;7.40;;;3.63;;
9898;SDS011;4988;49.238;6.698;2023-07-20T02:34:15;8.13;;;3.73;;
9898;SDS011;4988;49.238;6.698;2023-07-20T02:36:40;10.00;;;3.60;;
9898;SDS011;4988;49.238;6.698;2023-07-20T02:39:07;8.23;;;3.67;;
9898;SDS011;4988;49.238;6.698;2023-07-20T02:41:33;6.07;;;3.50;;
9898;SDS011;4988;49.238;6.698;2023-07-20T02:43:59;8.10;;;3.70;;
9898;SDS011;4988;49.238;6.698;2023-07-20T02:46:25;7.20;;;3.53;;
9898;SDS011;4988;49.238;6.698;2023-07-20T02:48:50;8.23;;;3.90;;
9898;SDS011;4988;49.238;6.698;2023-07-20T02:51:15;11.07;;;3.43;;
9898;SDS011;4988;49.238;6.698;2023-07-20T02:53:41;6.77;;;3.50;;
9898;SDS011;4988;49.238;6.698;2023-07-20T02:56:06;7.73;;;3.50;;
9898;SDS011;4988;49.238;6.698;2023-07-20T02:58:33;7.13;;;3.33;;
9898;SDS011;4988;49.238;6.698;2023-07-20T03:01:02;10.00;;;3.87;;
9898;SDS011;4988;49.238;6.698;2023-07-20T03:03:27;5.30;;;3.17;;
9898;SDS011;4988;49.238;6.698;2023-07-20T03:05:52;6.20;;;3.73;;
9898;SDS011;4988;49.238;6.698;2023-07-20T03:08:19;10.43;;;3.90;;
9898;SDS011;4988;49.238;6.698;2023-07-20T03:10:45;4.93;;;3.30;;
9898;SDS011;4988;49.238;6.698;2023-07-20T03:13:10;6.97;;;3.30;;
9898;SDS011;4988;49.238;6.698;2023-07-20T03:15:35;10.90;;;3.67;;
9898;SDS011;4988;49.238;6.698;2023-07-20T03:18:01;5.20;;;3.13;;
9898;SDS011;4988;49.238;6.698;2023-07-20T03:20:27;5.73;;;3.40;;
9898;SDS011;4988;49.238;6.698;2023-07-20T03:22:53;6.13;;;3.03;;
9898;SDS011;4988;49.238;6.698;2023-07-20T03:25:18;10.03;;;3.30;;
9898;SDS011;4988;49.238;6.698;2023-07-20T03:27:44;8.23;;;3.40;;
9898;SDS011;4988;49.238;6.698;2023-07-20T03:30:10;6.73;;;3.40;;
9898;SDS011;4988;49.238;6.698;2023-07-20T03:32:35;6.03;;;3.43;;
9898;SDS011;4988;49.238;6.698;2023-07-20T03:35:01;8.53;;;3.87;;
9898;SDS011;4988;49.238;6.698;2023-07-20T03:37:26;7.30;;;3.63;;
9898;SDS011;4988;49.238;6.698;2023-07-20T03:39:52;9.90;;;3.30;;
9898;SDS011;4988;49.238;6.698;2023-07-20T03:42:17;7.33;;;3.17;;
9898;SDS011;4988;49.238;6.698;2023-07-20T03:44:42;9.70;;;3.70;;
9898;SDS011;4988;49.238;6.698;2023-07-20T03:47:08;8.13;;;3.50;;
9898;SDS011;4988;49.238;6.698;2023-07-20T03:49:34;5.37;;;3.63;;
9898;SDS011;4988;49.238;6.698;2023-07-20T03:52:00;8.93;;;3.93;;
9898;SDS011;4988;49.238;6.698;2023-07-20T03:54:28;8.50;;;3.80;;
9898;SDS011;4988;49.238;6.698;2023-07-20T03:56:53;7.40;;;3.33;;
9898;SDS011;4988;49.238;6.698;2023-07-20T03:59:18;8.90;;;3.70;;
9898;SDS011;4988;49.238;6.698;2023-07-20T04:01:44;7.63;;;3.63;;
9898;SDS011;4988;49.238;6.698;2023-07-20T04:04:10;8.43;;;3.63;;
9898;SDS011;4988;49.238;6.698;2023-07-20T04:06:35;6.77;;;3.43;;
9898;SDS011;4988;49.238;6.698;2023-07-20T04:09:01;6.07;;;3.63;;
9898;SDS011;4988;49.238;6.698;2023-07-20T04:11:26;6.00;;;3.77;;
9898;SDS011;4988;49.238;6.698;2023-07-20T04:13:51;8.83;;;3.53;;
9898;SDS011;4988;49.238;6.698;2023-07-20T04:16:17;7.00;;;3.73;;
9898;SDS011;4988;49.238;6.698;2023-07-20T04:18:42;10.87;;;4.10;;
9898;SDS011;4988;49.238;6.698;2023-07-20T04:21:08;7.77;;;3.97;;
9898;SDS011;4988;49.238;6.698;2023-07-20T04:23:34;6.83;;;4.10;;
9898;SDS011;4988;49.238;6.698;2023-07-20T04:26:00;7.73;;;4.03;;
9898;SDS011;4988;49.238;6.698;2023-07-20T04:28:25;8.30;;;3.90;;
9898;SDS011;4988;49.238;6.698;2023-07-20T04:30:52;10.77;;;4.03;;
9898;SDS011;4988;49.238;6.698;2023-07-20T04:33:17;11.23;;;4.30;;
9898;SDS011;4988;49.238;6.698;2023-07-20T04:38:18;12.60;;;4.13;;
9898;SDS011;4988;49.238;6.698;2023-07-20T04:40:45;7.23;;;3.80;;
9898;SDS011;4988;49.238;6.698;2023-07-20T04:43:12;7.80;;;4.03;;
9898;SDS011;4988;49.238;6.698;2023-07-20T04:45:38;10.53;;;3.93;;
9898;SDS011;4988;49.238;6.698;2023-07-20T04:48:06;6.30;;;3.67;;
9898;SDS011;4988;49.238;6.698;2023-07-20T04:50:35;9.93;;;4.53;;
9898;SDS011;4988;49.238;6.698;2023-07-20T04:53:01;7.50;;;3.87;;
9898;SDS011;4988;49.238;6.698;2023-07-20T04:55:27;9.37;;;3.80;;
9898;SDS011;4988;49.238;6.698;2023-07-20T04:57:53;6.87;;;3.83;;
9898;SDS011;4988;49.238;6.698;2023-07-20T05:00:18;9.10;;;3.50;;
9898;SDS011;4988;49.238;6.698;2023-07-20T05:02:44;7.97;;;3.80;;
9898;SDS011;4988;49.238;6.698;2023-07-20T05:05:10;7.00;;;3.30;;
9898;SDS011;4988;49.238;6.698;2023-07-20T05:07:35;6.93;;;3.77;;
9898;SDS011;4988;49.238;6.698;2023-07-20T05:10:00;9.97;;;4.00;;
9898;SDS011;4988;49.238;6.698;2023-07-20T05:12:26;8.37;;;3.30;;
9898;SDS011;4988;49.238;6.698;2023-07-20T05:14:51;6.30;;;3.43;;
9898;SDS011;4988;49.238;6.698;2023-07-20T05:17:16;8.63;;;3.37;;
9898;SDS011;4988;49.238;6.698;2023-07-20T05:19:42;7.00;;;3.53;;
9898;SDS011;4988;49.238;6.698;2023-07-20T05:22:07;6.37;;;3.60;;
9898;SDS011;4988;49.238;6.698;2023-07-20T05:24:32;6.77;;;3.70;;
9898;SDS011;4988;49.238;6.698;2023-07-20T05:26:58;9.67;;;3.40;;
9898;SDS011;4988;49.238;6.698;2023-07-20T05:29:24;6.63;;;3.20;;
9898;SDS011;4988;49.238;6.698;2023-07-20T05:31:50;9.23;;;3.50;;
9898;SDS011;4988;49.238;6.698;2023-07-20T05:34:15;11.07;;;3.40;;
9898;SDS011;4988;49.238;6.698;2023-07-20T05:36:41;8.63;;;3.33;;
9898;SDS011;4988;49.238;6.698;2023-07-20T05:39:06;7.77;;;3.70;;
9898;SDS011;4988;49.238;6.698;2023-07-20T05:41:31;6.50;;;3.57;;
9898;SDS011;4988;49.238;6.698;2023-07-20T05:43:57;13.63;;;3.80;;
9898;SDS011;4988;49.238;6.698;2023-07-20T05:46:22;8.13;;;3.40;;
9898;SDS011;4988;49.238;6.698;2023-07-20T05:48:49;10.20;;;3.60;;
9898;SDS011;4988;49.238;6.698;2023-07-20T05:51:14;10.63;;;3.70;;
9898;SDS011;4988;49.238;6.698;2023-07-20T05:53:40;9.23;;;4.17;;
9898;SDS011;4988;49.238;6.698;2023-07-20T05:56:06;7.20;;;3.70;;
9898;SDS011;4988;49.238;6.698;2023-07-20T05:58:34;7.43;;;3.20;;
9898;SDS011;4988;49.238;6.698;2023-07-20T06:01:00;7.30;;;3.13;;
9898;SDS011;4988;49.238;6.698;2023-07-20T06:03:25;7.30;;;3.33;;
9898;SDS011;4988;49.238;6.698;2023-07-20T06:05:50;8.97;;;3.70;;
9898;SDS011;4988;49.238;6.698;2023-07-20T06:08:16;8.80;;;3.23;;
9898;SDS011;4988;49.238;6.698;2023-07-20T06:10:42;6.33;;;3.40;;
9898;SDS011;4988;49.238;6.698;2023-07-20T06:13:07;8.43;;;3.40;;
9898;SDS011;4988;49.238;6.698;2023-07-20T06:15:33;5.90;;;3.00;;
9898;SDS011;4988;49.238;6.698;2023-07-20T06:18:00;7.50;;;3.10;;
9898;SDS011;4988;49.238;6.698;2023-07-20T06:20:26;9.17;;;3.23;;
9898;SDS011;4988;49.238;6.698;2023-07-20T06:22:51;8.73;;;3.40;;
9898;SDS011;4988;49.238;6.698;2023-07-20T06:25:17;6.67;;;3.27;;
9898;SDS011;4988;49.238;6.698;2023-07-20T06:27:42;7.53;;;3.37;;
9898;SDS011;4988;49.238;6.698;2023-07-20T06:30:08;8.83;;;3.30;;
9898;SDS011;4988;49.238;6.698;2023-07-20T06:32:34;4.63;;;2.83;;
9898;SDS011;4988;49.238;6.698;2023-07-20T06:34:59;8.13;;;3.30;;
9898;SDS011;4988;49.238;6.698;2023-07-20T06:37:24;7.30;;;3.27;;
9898;SDS011;4988;49.238;6.698;2023-07-20T06:39:50;7.77;;;3.70;;
9898;SDS011;4988;49.238;6.698;2023-07-20T06:42:15;8.20;;;3.57;;
9898;SDS011;4988;49.238;6.698;2023-07-20T06:44:40;6.40;;;3.27;;
9898;SDS011;4988;49.238;6.698;2023-07-20T06:47:06;8.80;;;3.70;;
9898;SDS011;4988;49.238;6.698;2023-07-20T06:49:31;12.77;;;3.20;;
9898;SDS011;4988;49.238;6.698;2023-07-20T06:51:57;11.40;;;3.40;;
9898;SDS011;4988;49.238;6.698;2023-07-20T06:54:22;6.00;;;2.90;;
9898;SDS011;4988;49.238;6.698;2023-07-20T06:56:47;6.97;;;2.80;;
9898;SDS011;4988;49.238;6.698;2023-07-20T06:59:12;6.53;;;2.80;;
9898;SDS011;4988;49.238;6.698;2023-07-20T07:01:38;7.47;;;2.90;;
9898;SDS011;4988;49.238;6.698;2023-07-20T07:04:04;6.83;;;2.77;;
9898;SDS011;4988;49.238;6.698;2023-07-20T07:06:30;5.93;;;3.20;;
9898;SDS011;4988;49.238;6.698;2023-07-20T07:08:55;7.40;;;2.77;;
9898;SDS011;4988;49.238;6.698;2023-07-20T07:11:21;4.97;;;2.77;;
9898;SDS011;4988;49.238;6.698;2023-07-20T07:13:47;6.90;;;2.63;;
9898;SDS011;4988;49.238;6.698;2023-07-20T07:16:15;4.57;;;2.50;;
9898;SDS011;4988;49.238;6.698;2023-07-20T07:18:43;4.77;;;2.53;;
9898;SDS011;4988;49.238;6.698;2023-07-20T07:21:09;4.57;;;2.50;;
9898;SDS011;4988;49.238;6.698;2023-07-20T07:23:35;5.43;;;2.57;;
9898;SDS011;4988;49.238;6.698;2023-07-20T07:26:00;5.20;;;2.80;;
9898;SDS011;4988;49.238;6.698;2023-07-20T07:28:25;5.63;;;2.83;;
9898;SDS011;4988;49.238;6.698;2023-07-20T07:30:51;7.17;;;2.77;;
9898;SDS011;4988;49.238;6.698;2023-07-20T07:33:17;5.67;;;2.73;;
9898;SDS011;4988;49.238;6.698;2023-07-20T07:35:42;5.13;;;3.00;;
9898;SDS011;4988;49.238;6.698;2023-07-20T07:38:08;7.73;;;3.00;;
9898;SDS011;4988;49.238;6.698;2023-07-20T07:40:33;7.33;;;3.17;;
9898;SDS011;4988;49.238;6.698;2023-07-20T07:42:58;9.30;;;3.17;;
9898;SDS011;4988;49.238;6.698;2023-07-20T07:45:24;5.40;;;2.77;;
9898;SDS011;4988;49.238;6.698;2023-07-20T07:47:49;12.27;;;2.90;;
9898;SDS011;4988;49.238;6.698;2023-07-20T07:50:14;5.00;;;2.77;;
9898;SDS011;4988;49.238;6.698;2023-07-20T07:52:40;8.97;;;2.93;;
9898;SDS011;4988;49.238;6.698;2023-07-20T07:55:05;8.23;;;2.77;;
9898;SDS011;4988;49.238;6.698;2023-07-20T07:57:31;9.90;;;3.20;;
9898;SDS011;4988;49.238;6.698;2023-07-20T07:59:56;5.87;;;3.37;;
9898;SDS011;4988;49.238;6.698;2023-07-20T08:02:21;7.30;;;2.93;;
9898;SDS011;4988;49.238;6.698;2023-07-20T08:04:47;8.40;;;2.90;;
9898;SDS011;4988;49.238;6.698;2023-07-20T08:07:12;6.03;;;2.57;;
9898;SDS011;4988;49.238;6.698;2023-07-20T08:09:37;8.00;;;2.70;;
9898;SDS011;4988;49.238;6.698;2023-07-20T08:12:03;4.10;;;2.20;;
9898;SDS011;4988;49.238;6.698;2023-07-20T08:14:29;7.53;;;2.53;;
9898;SDS011;4988;49.238;6.698;2023-07-20T08:16:54;5.27;;;2.80;;
9898;SDS011;4988;49.238;6.698;2023-07-20T08:19:19;5.70;;;2.40;;
9898;SDS011;4988;49.238;6.698;2023-07-20T08:21:45;5.90;;;2.40;;
9898;SDS011;4988;49.238;6.698;2023-07-20T08:24:10;6.73;;;2.60;;
9898;SDS011;4988;49.238;6.698;2023-07-20T08:26:36;3.47;;;2.33;;
9898;SDS011;4988;49.238;6.698;2023-07-20T08:29:01;7.43;;;2.80;;
9898;SDS011;4988;49.238;6.698;2023-07-20T08:31:26;5.10;;;2.50;;
9898;SDS011;4988;49.238;6.698;2023-07-20T08:33:53;7.03;;;2.70;;
9898;SDS011;4988;49.238;6.698;2023-07-20T08:36:18;3.83;;;2.40;;
9898;SDS011;4988;49.238;6.698;2023-07-20T08:38:44;4.83;;;2.50;;
9898;SDS011;4988;49.238;6.698;2023-07-20T08:41:09;5.00;;;2.70;;
9898;SDS011;4988;49.238;6.698;2023-07-20T08:43:34;4.90;;;2.50;;
9898;SDS011;4988;49.238;6.698;2023-07-20T08:46:02;5.50;;;2.27;;
9898;SDS011;4988;49.238;6.698;2023-07-20T08:48:29;7.13;;;2.57;;
9898;SDS011;4988;49.238;6.698;2023-07-20T08:50:55;5.30;;;2.50;;
9898;SDS011;4988;49.238;6.698;2023-07-20T08:53:23;7.57;;;2.87;;
9898;SDS011;4988;49.238;6.698;2023-07-20T08:55:50;7.00;;;2.77;;
9898;SDS011;4988;49.238;6.698;2023-07-20T08:58:19;6.13;;;2.40;;
9898;SDS011;4988;49.238;6.698;2023-07-20T09:00:45;6.97;;;2.90;;
9898;SDS011;4988;49.238;6.698;2023-07-20T09:03:11;7.10;;;2.77;;
9898;SDS011;4988;49.238;6.698;2023-07-20T09:05:37;5.17;;;2.67;;
9898;SDS011;4988;49.238;6.698;2023-07-20T09:08:03;6.67;;;2.17;;
9898;SDS011;4988;49.238;6.698;2023-07-20T09:10:30;4.37;;;2.20;;
9898;SDS011;4988;49.238;6.698;2023-07-20T09:12:55;3.60;;;2.20;;
9898;SDS011;4988;49.238;6.698;2023-07-20T09:15:21;6.63;;;2.50;;
9898;SDS011;4988;49.238;6.698;2023-07-20T09:17:47;5.83;;;2.43;;
9898;SDS011;4988;49.238;6.698;2023-07-20T09:20:15;6.00;;;2.53;;
9898;SDS011;4988;49.238;6.698;2023-07-20T09:22:43;3.97;;;2.57;;
9898;SDS011;4988;49.238;6.698;2023-07-20T09:25:13;5.30;;;2.63;;
9898;SDS011;4988;49.238;6.698;2023-07-20T09:27:41;4.63;;;2.40;;
9898;SDS011;4988;49.238;6.698;2023-07-20T09:30:08;4.10;;;2.20;;
9898;SDS011;4988;49.238;6.698;2023-07-20T09:32:40;5.23;;;2.40;;
9898;SDS011;4988;49.238;6.698;2023-07-20T09:35:06;8.23;;;2.20;;
9898;SDS011;4988;49.238;6.698;2023-07-20T09:37:32;6.80;;;2.40;;
9898;SDS011;4988;49.238;6.698;2023-07-20T09:39:58;5.43;;;2.43;;
9898;SDS011;4988;49.238;6.698;2023-07-20T09:42:24;10.17;;;2.10;;
9898;SDS011;4988;49.238;6.698;2023-07-20T09:44:50;4.93;;;2.10;;
9898;SDS011;4988;49.238;6.698;2023-07-20T09:47:23;5.60;;;2.00;;
9898;SDS011;4988;49.238;6.698;2023-07-20T09:49:49;12.50;;;1.90;;
9898;SDS011;4988;49.238;6.698;2023-07-20T09:52:14;3.93;;;1.80;;
9898;SDS011;4988;49.238;6.698;2023-07-20T09:54:40;6.63;;;2.33;;
9898;SDS011;4988;49.238;6.698;2023-07-20T09:57:10;4.57;;;1.80;;
9898;SDS011;4988;49.238;6.698;2023-07-20T09:59:37;4.13;;;1.80;;
9898;SDS011;4988;49.238;6.698;2023-07-20T10:02:04;5.20;;;1.83;;
9898;SDS011;4988;49.238;6.698;2023-07-20T10:04:38;9.03;;;1.80;;
9898;SDS011;4988;49.238;6.698;2023-07-20T10:07:04;2.43;;;1.70;;
9898;SDS011;4988;49.238;6.698;2023-07-20T10:09:33;3.77;;;1.90;;
9898;SDS011;4988;49.238;6.698;2023-07-20T10:12:04;3.20;;;1.90;;
9898;SDS011;4988;49.238;6.698;2023-07-20T10:14:30;5.47;;;2.00;;
9898;SDS011;4988;49.238;6.698;2023-07-20T10:16:59;5.57;;;1.77;;
9898;SDS011;4988;49.238;6.698;2023-07-20T10:22:24;3.27;;;1.63;;
9898;SDS011;4988;49.238;6.698;2023-07-20T10:24:51;5.13;;;1.60;;
9898;SDS011;4988;49.238;6.698;2023-07-20T10:27:19;6.93;;;1.70;;
9898;SDS011;4988;49.238;6.698;2023-07-20T10:29:45;5.17;;;1.67;;
9898;SDS011;4988;49.238;6.698;2023-07-20T10:32:12;2.97;;;1.60;;
9898;SDS011;4988;49.238;6.698;2023-07-20T10:34:38;4.43;;;1.77;;
9898;SDS011;4988;49.238;6.698;2023-07-20T10:37:04;5.07;;;1.53;;
9898;SDS011;4988;49.238;6.698;2023-07-20T10:39:32;3.37;;;1.80;;
9898;SDS011;4988;49.238;6.698;2023-07-20T10:42:07;3.67;;;1.90;;
9898;SDS011;4988;49.238;6.698;2023-07-20T10:44:34;4.07;;;1.70;;
9898;SDS011;4988;49.238;6.698;2023-07-20T10:47:03;4.30;;;2.00;;
9898;SDS011;4988;49.238;6.698;2023-07-20T10:49:33;4.83;;;1.63;;
9898;SDS011;4988;49.238;6.698;2023-07-20T10:52:00;3.83;;;1.73;;
9898;SDS011;4988;49.238;6.698;2023-07-20T10:56:55;3.30;;;1.77;;
9898;SDS011;4988;49.238;6.698;2023-07-20T11:01:51;3.80;;;1.80;;
9898;SDS011;4988;49.238;6.698;2023-07-20T11:04:21;4.40;;;1.80;;
9898;SDS011;4988;49.238;6.698;2023-07-20T11:07:09;8.07;;;1.77;;
9898;SDS011;4988;49.238;6.698;2023-07-20T11:09:35;5.80;;;1.90;;
9898;SDS011;4988;49.238;6.698;2023-07-20T11:14:40;2.37;;;1.60;;
9898;SDS011;4988;49.238;6.698;2023-07-20T11:17:10;4.57;;;1.90;;
9898;SDS011;4988;49.238;6.698;2023-07-20T11:19:40;3.23;;;1.70;;
9898;SDS011;4988;49.238;6.698;2023-07-20T11:22:05;3.17;;;1.80;;
9898;SDS011;4988;49.238;6.698;2023-07-20T11:24:36;3.27;;;1.30;;
9898;SDS011;4988;49.238;6.698;2023-07-20T11:27:04;4.97;;;1.90;;
9898;SDS011;4988;49.238;6.698;2023-07-20T11:29:29;3.70;;;1.77;;
9898;SDS011;4988;49.238;6.698;2023-07-20T11:31:55;3.40;;;1.73;;
9898;SDS011;4988;49.238;6.698;2023-07-20T11:34:21;5.77;;;1.60;;
9898;SDS011;4988;49.238;6.698;2023-07-20T11:36:47;3.23;;;1.57;;
9898;SDS011;4988;49.238;6.698;2023-07-20T11:39:14;4.33;;;1.50;;
9898;SDS011;4988;49.238;6.698;2023-07-20T11:41:50;3.63;;;1.70;;
9898;SDS011;4988;49.238;6.698;2023-07-20T11:44:21;5.27;;;1.67;;
9898;SDS011;4988;49.238;6.698;2023-07-20T11:47:12;6.27;;;1.60;;
9898;SDS011;4988;49.238;6.698;2023-07-20T11:49:38;3.37;;;1.50;;
9898;SDS011;4988;49.238;6.698;2023-07-20T11:52:06;4.67;;;1.70;;
9898;SDS011;4988;49.238;6.698;2023-07-20T11:54:34;4.27;;;1.50;;
9898;SDS011;4988;49.238;6.698;2023-07-20T11:57:03;3.23;;;1.80;;
9898;SDS011;4988;49.238;6.698;2023-07-20T11:59:30;7.97;;;1.63;;
9898;SDS011;4988;49.238;6.698;2023-07-20T12:01:56;7.00;;;1.90;;
9898;SDS011;4988;49.238;6.698;2023-07-20T12:04:25;5.77;;;1.80;;
9898;SDS011;4988;49.238;6.698;2023-07-20T12:06:52;6.37;;;1.53;;
9898;SDS011;4988;49.238;6.698;2023-07-20T12:09:18;5.33;;;1.67;;
9898;SDS011;4988;49.238;6.698;2023-07-20T12:11:44;2.60;;;1.43;;
9898;SDS011;4988;49.238;6.698;2023-07-20T12:14:12;4.87;;;1.50;;
9898;SDS011;4988;49.238;6.698;2023-07-20T12:16:38;3.17;;;1.50;;
9898;SDS011;4988;49.238;6.698;2023-07-20T12:19:04;2.47;;;1.40;;
9898;SDS011;4988;49.238;6.698;2023-07-20T12:21:31;4.00;;;1.80;;
9898;SDS011;4988;49.238;6.698;2023-07-20T12:23:58;3.03;;;1.57;;
9898;SDS011;4988;49.238;6.698;2023-07-20T12:26:28;4.13;;;1.80;;
9898;SDS011;4988;49.238;6.698;2023-07-20T12:28:54;2.50;;;1.53;;
9898;SDS011;4988;49.238;6.698;2023-07-20T12:31:20;3.80;;;1.60;;
9898;SDS011;4988;49.238;6.698;2023-07-20T12:33:48;3.37;;;1.53;;
9898;SDS011;4988;49.238;6.698;2023-07-20T12:36:14;3.17;;;1.47;;
9898;SDS011;4988;49.238;6.698;2023-07-20T12:38:39;1.83;;;1.30;;
9898;SDS011;4988;49.238;6.698;2023-07-20T12:41:06;2.30;;;1.50;;
9898;SDS011;4988;49.238;6.698;2023-07-20T12:43:32;4.33;;;1.47;;
9898;SDS011;4988;49.238;6.698;2023-07-20T12:45:57;5.43;;;1.60;;
9898;SDS011;4988;49.238;6.698;2023-07-20T12:48:23;7.07;;;1.83;;
9898;SDS011;4988;49.238;6.698;2023-07-20T12:50:48;3.57;;;1.40;;
9898;SDS011;4988;49.238;6.698;2023-07-20T12:53:14;2.97;;;1.33;;
9898;SDS011;4988;49.238;6.698;2023-07-20T12:55:39;2.63;;;1.47;;
9898;SDS011;4988;49.238;6.698;2023-07-20T12:58:05;2.93;;;1.47;;
9898;SDS011;4988;49.238;6.698;2023-07-20T13:00:31;5.60;;;1.30;;
9898;SDS011;4988;49.238;6.698;2023-07-20T13:02:57;5.50;;;1.60;;
9898;SDS011;4988;49.238;6.698;2023-07-20T13:05:22;2.47;;;1.40;;
9898;SDS011;4988;49.238;6.698;2023-07-20T13:07:48;2.53;;;1.20;;
9898;SDS011;4988;49.238;6.698;2023-07-20T13:10:13;2.90;;;1.57;;
9898;SDS011;4988;49.238;6.698;2023-07-20T13:12:38;3.60;;;1.60;;
9898;SDS011;4988;49.238;6.698;2023-07-20T13:15:04;2.83;;;1.40;;
9898;SDS011;4988;49.238;6.698;2023-07-20T13:17:32;1.80;;;1.40;;
9898;SDS011;4988;49.238;6.698;2023-07-20T13:19:58;2.50;;;1.20;;
9898;SDS011;4988;49.238;6.698;2023-07-20T13:22:23;2.67;;;1.50;;
9898;SDS011;4988;49.238;6.698;2023-07-20T13:24:49;4.57;;;1.83;;
9898;SDS011;4988;49.238;6.698;2023-07-20T13:27:15;5.53;;;1.60;;
9898;SDS011;4988;49.238;6.698;2023-07-20T13:29:41;2.47;;;1.40;;
9898;SDS011;4988;49.238;6.698;2023-07-20T13:32:07;5.40;;;1.80;;
9898;SDS011;4988;49.238;6.698;2023-07-20T13:34:33;4.03;;;1.67;;
9898;SDS011;4988;49.238;6.698;2023-07-20T13:36:58;3.83;;;1.33;;
9898;SDS011;4988;49.238;6.698;2023-07-20T13:39:24;3.63;;;1.40;;
9898;SDS011;4988;49.238;6.698;2023-07-20T13:41:51;4.23;;;1.57;;
9898;SDS011;4988;49.238;6.698;2023-07-20T13:44:17;2.73;;;1.43;;
9898;SDS011;4988;49.238;6.698;2023-07-20T13:46:42;2.10;;;1.40;;
9898;SDS011;4988;49.238;6.698;2023-07-20T13:49:08;2.17;;;1.40;;
9898;SDS011;4988;49.238;6.698;2023-07-20T13:51:34;4.17;;;1.80;;
9898;SDS011;4988;49.238;6.698;2023-07-20T13:53:59;3.50;;;1.30;;
9898;SDS011;4988;49.238;6.698;2023-07-20T13:56:24;2.30;;;1.40;;
9898;SDS011;4988;49.238;6.698;2023-07-20T13:58:50;2.90;;;1.27;;
9898;SDS011;4988;49.238;6.698;2023-07-20T14:01:16;3.70;;;1.43;;
9898;SDS011;4988;49.238;6.698;2023-07-20T14:03:42;4.67;;;1.50;;
9898;SDS011;4988;49.238;6.698;2023-07-20T14:06:08;4.07;;;1.57;;
9898;SDS011;4988;49.238;6.698;2023-07-20T14:08:33;1.80;;;1.30;;
9898;SDS011;4988;49.238;6.698;2023-07-20T14:10:58;2.70;;;1.50;;
9898;SDS011;4988;49.238;6.698;2023-07-20T14:13:24;3.20;;;1.40;;
9898;SDS011;4988;49.238;6.698;2023-07-20T14:15:49;3.47;;;1.37;;
9898;SDS011;4988;49.238;6.698;2023-07-20T14:18:15;2.53;;;1.30;;
9898;SDS011;4988;49.238;6.698;2023-07-20T14:20:41;4.83;;;1.27;;
9898;SDS011;4988;49.238;6.698;2023-07-20T14:23:06;3.53;;;1.50;;
9898;SDS011;4988;49.238;6.698;2023-07-20T14:25:32;2.23;;;1.43;;
9898;SDS011;4988;49.238;6.698;2023-07-20T14:27:58;5.77;;;2.50;;
9898;SDS011;4988;49.238;6.698;2023-07-20T14:30:24;6.27;;;1.60;;
9898;SDS011;4988;49.238;6.698;2023-07-20T14:32:49;2.57;;;1.40;;
9898;SDS011;4988;49.238;6.698;2023-07-20T14:35:15;3.60;;;1.43;;
9898;SDS011;4988;49.238;6.698;2023-07-20T14:37:40;3.47;;;1.40;;
9898;SDS011;4988;49.238;6.698;2023-07-20T14:40:05;3.00;;;1.40;;
9898;SDS011;4988;49.238;6.698;2023-07-20T14:42:32;2.63;;;1.40;;
9898;SDS011;4988;49.238;6.698;2023-07-20T14:44:57;4.77;;;1.33;;
9898;SDS011;4988;49.238;6.698;2023-07-20T14:47:23;4.87;;;1.60;;
9898;SDS011;4988;49.238;6.698;2023-07-20T14:49:48;5.20;;;1.43;;
9898;SDS011;4988;49.238;6.698;2023-07-20T14:52:14;3.27;;;1.40;;
9898;SDS011;4988;49.238;6.698;2023-07-20T14:54:39;4.03;;;1.43;;
9898;SDS011;4988;49.238;6.698;2023-07-20T14:57:04;4.47;;;1.30;;
9898;SDS011;4988;49.238;6.698;2023-07-20T14:59:32;5.07;;;1.47;;
9898;SDS011;4988;49.238;6.698;2023-07-20T15:01:57;3.47;;;1.50;;
9898;SDS011;4988;49.238;6.698;2023-07-20T15:04:23;1.93;;;1.20;;
9898;SDS011;4988;49.238;6.698;2023-07-20T15:06:48;3.07;;;1.50;;
9898;SDS011;4988;49.238;6.698;2023-07-20T15:09:13;4.93;;;1.57;;
9898;SDS011;4988;49.238;6.698;2023-07-20T15:11:39;2.40;;;1.27;;
9898;SDS011;4988;49.238;6.698;2023-07-20T15:14:04;2.83;;;1.30;;
9898;SDS011;4988;49.238;6.698;2023-07-20T15:16:29;2.47;;;1.40;;
9898;SDS011;4988;49.238;6.698;2023-07-20T15:18:55;2.40;;;1.30;;
9898;SDS011;4988;49.238;6.698;2023-07-20T15:21:20;2.40;;;1.40;;
9898;SDS011;4988;49.238;6.698;2023-07-20T15:23:45;3.67;;;1.50;;
9898;SDS011;4988;49.238;6.698;2023-07-20T15:26:11;1.93;;;1.30;;
9898;SDS011;4988;49.238;6.698;2023-07-20T15:28:37;2.80;;;1.47;;
9898;SDS011;4988;49.238;6.698;2023-07-20T15:31:03;4.47;;;1.40;;